createdAt,value
2019-04-28T00:02:03.456Z,88.10
2019-04-28T00:04:32.011Z,88.20
2019-04-28T00:07:01.770Z,87.50
2019-04-28T00:09:51.152Z,88.80
2019-04-28T00:12:21.036Z,88.00
2019-04-28T00:14:51.632Z,88.50
2019-04-28T00:17:21.086Z,87.30
2019-04-28T00:19:51.469Z,88.10
2019-04-28T00:22:26.921Z,88.10
2019-04-28T00:25:01.468Z,87.30
2019-04-28T00:27:31.491Z,87.90
2019-04-28T00:30:01.958Z,88.60
2019-04-28T00:32:32.337Z,89.30
2019-04-28T00:35:02.343Z,87.50
2019-04-28T00:37:32.276Z,87.90
2019-04-28T00:40:01.274Z,87.40
2019-04-28T00:42:31.510Z,87.00
2019-04-28T00:45:01.665Z,87.00
2019-04-28T00:47:31.214Z,87.80
2019-04-28T00:50:02.139Z,87.30
2019-04-28T00:52:31.984Z,87.10
2019-04-28T00:55:01.239Z,87.70
2019-04-28T00:57:31.018Z,87.00
2019-04-28T01:00:02.096Z,86.90
2019-04-28T01:02:38.044Z,86.70
2019-04-28T01:05:08.513Z,86.80
2019-04-28T01:07:37.284Z,86.70
2019-04-28T01:10:06.952Z,86.60
2019-04-28T01:12:36.035Z,87.00
2019-04-28T01:15:10.128Z,86.80
2019-04-28T01:17:56.035Z,87.40
2019-04-28T01:20:25.715Z,87.90
2019-04-28T01:22:54.282Z,87.50
2019-04-28T01:25:23.017Z,87.30
2019-04-28T01:27:53.320Z,86.90
2019-04-28T01:30:27.840Z,87.70
2019-04-28T01:33:12.900Z,87.40
2019-04-28T01:35:41.586Z,86.60
2019-04-28T01:38:12.276Z,87.90
2019-04-28T01:40:41.375Z,87.80
2019-04-28T01:43:10.119Z,87.70
2019-04-28T01:45:39.894Z,87.20
2019-04-28T01:48:10.039Z,86.70
2019-04-28T01:50:40.002Z,87.30
2019-04-28T01:53:09.701Z,86.60
2019-04-28T01:55:39.325Z,87.20
2019-04-28T01:58:09.566Z,87.20
2019-04-28T02:00:40.518Z,87.20
2019-04-28T02:03:10.365Z,87.30
2019-04-28T02:05:40.522Z,88.20
2019-04-28T02:08:12.315Z,88.10
2019-04-28T02:10:40.863Z,87.90
2019-04-28T02:13:09.613Z,88.30
2019-04-28T02:15:40.080Z,87.70
2019-04-28T02:18:09.965Z,87.80
2019-04-28T02:20:40.591Z,87.80
2019-04-28T02:23:10.906Z,87.10
2019-04-28T02:25:39.944Z,86.50
2019-04-28T02:28:09.411Z,86.50
2019-04-28T02:30:45.468Z,86.80
2019-04-28T02:33:11.165Z,87.10
2019-04-28T02:35:41.873Z,86.10
2019-04-28T02:38:11.527Z,85.50
2019-04-28T02:40:40.731Z,86.30
2019-04-28T02:43:11.426Z,86.80
2019-04-28T02:45:41.302Z,86.50
2019-04-28T02:48:11.956Z,86.70
2019-04-28T02:50:42.126Z,87.20
2019-04-28T02:53:20.865Z,87.60
2019-04-28T02:55:51.235Z,88.30
2019-04-28T02:58:22.285Z,89.10
2019-04-28T03:01:02.724Z,88.40
2019-04-28T03:03:21.081Z,87.50
2019-04-28T03:05:51.223Z,87.10
2019-04-28T03:08:21.448Z,87.90
2019-04-28T03:11:00.912Z,88.00
2019-04-28T03:13:31.115Z,87.10
2019-04-28T03:16:01.528Z,87.20
2019-04-28T03:18:31.688Z,87.30
2019-04-28T03:21:03.481Z,87.90
2019-04-28T03:23:31.453Z,88.10
2019-04-28T03:26:04.184Z,87.80
2019-04-28T03:28:34.479Z,88.20
2019-04-28T03:31:36.720Z,87.70
2019-04-28T03:33:48.013Z,87.70
2019-04-28T03:36:15.458Z,87.60
2019-04-28T03:38:42.106Z,87.10
2019-04-28T03:41:11.350Z,86.60
2019-04-28T03:43:40.702Z,87.50
2019-04-28T03:46:14.243Z,87.00
2019-04-28T03:48:42.848Z,87.00
2019-04-28T03:51:13.456Z,87.50
2019-04-28T03:53:41.758Z,86.60
2019-04-28T03:56:11.370Z,86.00
2019-04-28T03:58:40.765Z,86.40
2019-04-28T04:01:10.755Z,87.20
2019-04-28T04:03:41.739Z,86.50
2019-04-28T04:06:10.588Z,85.80
2019-04-28T04:08:40.750Z,86.10
2019-04-28T04:11:11.327Z,85.50
2019-04-28T04:13:41.841Z,85.70
2019-04-28T04:16:24.109Z,85.90
2019-04-28T04:18:54.341Z,86.60
2019-04-28T04:21:22.966Z,86.20
2019-04-28T04:23:51.703Z,87.50
2019-04-28T04:26:21.242Z,86.20
2019-04-28T04:28:51.527Z,85.30
2019-04-28T04:31:20.423Z,85.70
2019-04-28T04:33:50.610Z,85.80
2019-04-28T04:36:21.176Z,86.30
2019-04-28T04:38:51.271Z,85.80
2019-04-28T04:41:42.910Z,85.60
2019-04-28T04:44:11.169Z,85.40
2019-04-28T04:46:41.492Z,86.70
2019-04-28T04:49:10.783Z,86.50
2019-04-28T04:51:40.718Z,86.60
2019-04-28T04:54:10.871Z,85.70
2019-04-28T04:56:40.236Z,85.10
2019-04-28T04:59:10.224Z,85.20
2019-04-28T05:01:46.783Z,86.00
2019-04-28T05:04:22.534Z,85.90
2019-04-28T05:06:51.085Z,85.80
2019-04-28T05:09:19.774Z,85.20
2019-04-28T05:11:49.926Z,85.10
2019-04-28T05:14:19.817Z,85.20
2019-04-28T05:16:49.742Z,85.70
2019-04-28T05:19:19.917Z,86.30
2019-04-28T05:21:49.887Z,85.40
2019-04-28T05:24:26.330Z,85.80
2019-04-28T05:26:54.953Z,85.30
2019-04-28T05:29:26.941Z,85.80
2019-04-28T05:31:54.955Z,85.70
2019-04-28T05:34:24.574Z,85.80
2019-04-28T05:36:53.446Z,86.40
2019-04-28T05:39:22.285Z,86.00
2019-04-28T05:41:50.830Z,85.40
2019-04-28T05:44:20.163Z,85.40
2019-04-28T05:46:50.693Z,85.90
2019-04-28T05:49:33.199Z,85.00
2019-04-28T05:52:20.037Z,84.40
2019-04-28T05:54:50.398Z,85.30
2019-04-28T05:57:31.299Z,86.20
2019-04-28T06:00:07.451Z,85.70
2019-04-28T06:02:39.551Z,85.60
2019-04-28T06:05:09.995Z,84.70
2019-04-28T06:07:54.571Z,84.00
2019-04-28T06:10:23.178Z,83.50
2019-04-28T06:12:51.897Z,83.50
2019-04-28T06:15:20.551Z,83.50
2019-04-28T06:17:49.855Z,83.40
2019-04-28T06:20:20.165Z,83.00
2019-04-28T06:22:49.069Z,83.50
2019-04-28T06:25:17.635Z,83.30
2019-04-28T06:27:46.286Z,82.30
2019-04-28T06:30:15.285Z,82.20
2019-04-28T06:32:44.204Z,81.90
2019-04-28T06:35:13.180Z,81.90
2019-04-28T06:37:41.734Z,82.50
2019-04-28T06:40:10.568Z,82.30
2019-04-28T06:42:39.346Z,81.60
2019-04-28T06:45:28.786Z,81.50
2019-04-28T06:47:57.387Z,81.00
2019-04-28T06:50:25.935Z,81.10
2019-04-28T06:52:54.724Z,81.00
2019-04-28T06:55:23.304Z,80.20
2019-04-28T06:57:52.082Z,79.30
2019-04-28T07:00:20.681Z,79.20
2019-04-28T07:02:49.458Z,79.20
2019-04-28T07:05:18.055Z,78.80
2019-04-28T07:07:46.670Z,77.70
2019-04-28T07:10:15.431Z,77.20
2019-04-28T07:12:44.339Z,76.70
2019-04-28T07:15:13.028Z,76.50
2019-04-28T07:17:41.570Z,76.30
2019-04-28T07:20:28.553Z,75.10
2019-04-28T07:22:57.186Z,74.20
2019-04-28T07:25:25.842Z,72.90
2019-04-28T07:27:54.903Z,73.70
2019-04-28T07:30:24.258Z,73.40
2019-04-28T07:32:53.084Z,72.50
2019-04-28T07:35:21.847Z,72.20
2019-04-28T07:37:50.439Z,71.30
2019-04-28T07:40:19.138Z,71.50
2019-04-28T07:42:47.742Z,72.20
2019-04-28T07:45:16.511Z,72.90
2019-04-28T07:47:45.103Z,72.70
2019-04-28T07:50:14.684Z,71.90
2019-04-28T07:52:44.879Z,71.80
2019-04-28T07:55:13.527Z,72.80
2019-04-28T07:57:42.075Z,73.50
2019-04-28T08:00:13.187Z,73.60
2019-04-28T08:02:42.033Z,72.40
2019-04-28T08:05:11.176Z,73.50
2019-04-28T08:07:39.927Z,73.60
2019-04-28T08:10:09.450Z,73.40
2019-04-28T08:12:38.000Z,73.50
2019-04-28T08:15:06.833Z,73.20
2019-04-28T08:17:35.453Z,71.60
2019-04-28T08:20:05.843Z,70.10
2019-04-28T08:22:34.466Z,70.00
2019-04-28T08:25:04.238Z,71.60
2019-04-28T08:27:32.786Z,71.70
2019-04-28T08:30:01.375Z,70.90
2019-04-28T08:32:49.769Z,69.70
2019-04-28T08:35:18.478Z,69.70
2019-04-28T08:37:47.063Z,70.40
2019-04-28T08:40:15.795Z,70.70
2019-04-28T08:42:44.490Z,70.60
2019-04-28T08:45:14.486Z,70.90
2019-04-28T08:47:43.070Z,70.90
2019-04-28T08:50:12.600Z,70.50
2019-04-28T08:52:41.383Z,70.70
2019-04-28T08:55:10.100Z,69.40
2019-04-28T08:57:38.674Z,69.80
2019-04-28T09:00:10.367Z,69.50
2019-04-28T09:02:39.151Z,69.40
2019-04-28T09:05:08.124Z,70.00
2019-04-28T09:07:36.751Z,68.10
2019-04-28T09:10:07.394Z,69.40
2019-04-28T09:12:36.003Z,68.10
2019-04-28T09:15:06.869Z,68.60
2019-04-28T09:17:37.056Z,68.30
2019-04-28T09:20:07.255Z,68.50
2019-04-28T09:22:35.810Z,69.10
2019-04-28T09:25:06.547Z,69.80
2019-04-28T09:27:35.113Z,70.40
2019-04-28T09:30:05.783Z,71.40
2019-04-28T09:32:34.500Z,71.10
2019-04-28T09:35:04.891Z,71.40
2019-04-28T09:37:33.492Z,71.40
2019-04-28T09:40:04.223Z,71.00
2019-04-28T09:42:34.468Z,71.10
2019-04-28T09:45:04.836Z,71.60
2019-04-28T09:47:33.380Z,71.50
2019-04-28T09:50:02.111Z,72.40
2019-04-28T09:52:30.682Z,71.80
2019-04-28T09:54:59.349Z,71.90
2019-04-28T09:57:28.006Z,71.20
2019-04-28T09:59:56.620Z,70.20
2019-04-28T10:02:25.230Z,71.20
2019-04-28T10:04:53.815Z,72.90
2019-04-28T10:07:22.580Z,73.80
2019-04-28T10:09:51.211Z,73.00
2019-04-28T10:12:26.937Z,74.10
2019-04-28T10:14:50.329Z,72.90
2019-04-28T10:17:18.990Z,73.70
2019-04-28T10:19:47.679Z,73.50
2019-04-28T10:22:16.522Z,73.40
2019-04-28T10:24:45.198Z,72.90
2019-04-28T10:27:13.821Z,72.80
2019-04-28T10:29:42.587Z,73.70
2019-04-28T10:32:11.455Z,74.30
2019-04-28T10:34:40.124Z,73.90
2019-04-28T10:37:08.953Z,72.90
2019-04-28T10:39:39.547Z,72.20
2019-04-28T10:42:08.066Z,71.40
2019-04-28T10:44:38.294Z,71.90
2019-04-28T10:47:07.940Z,71.90
2019-04-28T10:49:36.608Z,71.20
2019-04-28T10:52:05.231Z,70.40
2019-04-28T10:54:33.874Z,70.50
2019-04-28T10:57:02.607Z,70.80
2019-04-28T10:59:31.433Z,70.20
2019-04-28T11:02:00.002Z,70.10
2019-04-28T11:04:39.328Z,70.60
2019-04-28T11:07:10.228Z,70.10
2019-04-28T11:09:43.800Z,68.90
2019-04-28T11:12:17.479Z,68.80
2019-04-28T11:14:46.478Z,67.50
2019-04-28T11:17:16.706Z,65.70
2019-04-28T11:19:45.320Z,65.80
2019-04-28T11:22:14.247Z,65.50
2019-04-28T11:24:43.016Z,65.90
2019-04-28T11:27:12.422Z,65.40
2019-04-28T11:29:41.159Z,65.40
2019-04-28T11:32:11.713Z,66.20
2019-04-28T11:34:45.215Z,66.30
2019-04-28T11:37:14.564Z,67.10
2019-04-28T11:39:45.034Z,66.30
2019-04-28T11:42:13.651Z,66.50
2019-04-28T11:44:42.476Z,66.50
2019-04-28T11:47:12.687Z,66.10
2019-04-28T11:49:41.940Z,66.50
2019-04-28T11:52:10.886Z,67.40
2019-04-28T11:54:39.466Z,65.80
2019-04-28T11:57:08.118Z,65.20
2019-04-28T11:59:36.813Z,64.30
2019-04-28T12:02:08.200Z,64.00
2019-04-28T12:04:36.940Z,63.60
2019-04-28T12:07:07.611Z,64.20
2019-04-28T12:10:04.949Z,64.60
2019-04-28T12:12:27.550Z,63.60
2019-04-28T12:14:57.925Z,64.70
2019-04-28T12:17:44.268Z,67.10
2019-04-28T12:20:17.497Z,67.30
2019-04-28T12:22:46.043Z,66.90
2019-04-28T12:25:14.981Z,66.80
2019-04-28T12:27:43.532Z,67.30
2019-04-28T12:30:13.330Z,67.30
2019-04-28T12:33:01.266Z,67.40
2019-04-28T12:35:29.931Z,67.60
2019-04-28T12:37:58.678Z,68.40
2019-04-28T12:40:27.243Z,68.40
2019-04-28T12:42:55.915Z,68.30
2019-04-28T12:45:35.180Z,67.40
2019-04-28T12:48:00.375Z,67.40
2019-04-28T12:50:45.803Z,67.80
2019-04-28T12:53:14.551Z,67.10
2019-04-28T12:55:43.100Z,69.70
2019-04-28T12:58:12.708Z,68.50
2019-04-28T13:00:49.032Z,66.60
2019-04-28T13:03:21.918Z,63.70
2019-04-28T13:06:01.454Z,63.50
2019-04-28T13:08:22.538Z,63.30
2019-04-28T13:10:51.251Z,63.80
2019-04-28T13:13:22.482Z,63.70
2019-04-28T13:15:51.495Z,63.30
2019-04-28T13:18:20.179Z,63.40
2019-04-28T13:20:48.991Z,62.60
2019-04-28T13:23:17.583Z,63.50
2019-04-28T13:25:46.363Z,62.90
2019-04-28T13:28:15.102Z,63.30
2019-04-28T13:30:43.949Z,63.60
2019-04-28T13:33:12.631Z,63.90
2019-04-28T13:35:41.293Z,63.20
2019-04-28T13:38:10.183Z,63.70
2019-04-28T13:40:40.411Z,63.90
2019-04-28T13:43:09.042Z,64.50
2019-04-28T13:45:38.113Z,64.60
2019-04-28T13:48:06.812Z,64.40
2019-04-28T13:50:36.877Z,64.10
2019-04-28T13:53:06.730Z,64.00
2019-04-28T13:55:43.047Z,64.20
2019-04-28T13:58:11.811Z,63.90
2019-04-28T14:00:57.201Z,64.70
2019-04-28T14:03:43.920Z,64.60
2019-04-28T14:06:27.325Z,64.30
2019-04-28T14:08:44.770Z,64.60
2019-04-28T14:11:13.895Z,64.60
2019-04-28T14:13:42.698Z,64.20
2019-04-28T14:16:11.382Z,62.70
2019-04-28T14:18:40.002Z,62.60
2019-04-28T14:21:08.678Z,62.00
2019-04-28T14:23:37.300Z,61.20
2019-04-28T14:26:06.147Z,61.30
2019-04-28T14:28:37.964Z,61.20
2019-04-28T14:31:10.046Z,60.90
2019-04-28T14:33:38.290Z,60.90
2019-04-28T14:36:07.251Z,62.80
2019-04-28T14:38:35.938Z,63.50
2019-04-28T14:41:04.641Z,63.50
2019-04-28T14:43:33.210Z,64.20
2019-04-28T14:46:01.997Z,64.30
2019-04-28T14:48:32.216Z,64.20
2019-04-28T14:51:00.882Z,60.90
2019-04-28T14:53:29.945Z,59.50
2019-04-28T14:55:58.860Z,59.60
2019-04-28T14:58:27.651Z,59.70
2019-04-28T15:01:06.824Z,59.30
2019-04-28T15:03:52.137Z,59.20
2019-04-28T15:06:27.011Z,59.90
2019-04-28T15:08:58.234Z,59.60
2019-04-28T15:11:31.060Z,60.70
2019-04-28T15:13:59.752Z,59.80
2019-04-28T15:16:28.579Z,60.70
2019-04-28T15:18:57.404Z,61.00
2019-04-28T15:21:26.350Z,61.20
2019-04-28T15:23:54.838Z,61.10
2019-04-28T15:26:23.427Z,60.80
2019-04-28T15:28:52.046Z,60.80
2019-04-28T15:31:20.706Z,61.10
2019-04-28T15:33:49.388Z,61.30
2019-04-28T15:36:18.023Z,60.50
2019-04-28T15:38:46.648Z,60.50
2019-04-28T15:41:21.681Z,58.40
2019-04-28T15:43:46.899Z,58.10
2019-04-28T15:46:15.472Z,58.00
2019-04-28T15:48:44.056Z,57.30
2019-04-28T15:51:12.690Z,57.00
2019-04-28T15:53:41.354Z,57.60
2019-04-28T15:56:26.595Z,58.20
2019-04-28T15:58:56.835Z,59.60
2019-04-28T16:01:27.154Z,60.90
2019-04-28T16:03:55.816Z,61.40
2019-04-28T16:06:25.294Z,62.40
2019-04-28T16:08:54.011Z,62.40
2019-04-28T16:11:22.746Z,61.90
2019-04-28T16:13:51.450Z,61.90
2019-04-28T16:16:20.089Z,62.00
2019-04-28T16:18:48.704Z,62.00
2019-04-28T16:21:17.855Z,61.90
2019-04-28T16:23:46.589Z,62.60
2019-04-28T16:26:15.741Z,62.70
2019-04-28T16:28:44.359Z,63.20
2019-04-28T16:31:13.058Z,63.10
2019-04-28T16:33:41.722Z,63.20
2019-04-28T16:36:10.479Z,63.30
2019-04-28T16:38:39.042Z,63.30
2019-04-28T16:41:07.628Z,62.80
2019-04-28T16:43:36.334Z,62.10
2019-04-28T16:46:05.169Z,61.50
2019-04-28T16:48:33.902Z,61.70
2019-04-28T16:51:02.471Z,61.30
2019-04-28T16:53:31.108Z,61.60
2019-04-28T16:56:01.587Z,61.50
2019-04-28T16:58:34.826Z,62.40
2019-04-28T17:01:21.625Z,61.50
2019-04-28T17:03:50.317Z,62.80
2019-04-28T17:06:19.022Z,62.90
2019-04-28T17:08:47.592Z,62.00
2019-04-28T17:11:16.522Z,60.80
2019-04-28T17:13:45.090Z,60.70
2019-04-28T17:16:13.684Z,60.90
2019-04-28T17:18:42.332Z,60.60
2019-04-28T17:21:12.879Z,60.10
2019-04-28T17:23:41.154Z,58.50
2019-04-28T17:26:11.367Z,58.70
2019-04-28T17:28:40.286Z,58.90
2019-04-28T17:31:09.298Z,58.50
2019-04-28T17:33:37.931Z,58.70
2019-04-28T17:36:06.733Z,59.00
2019-04-28T17:38:36.882Z,59.10
2019-04-28T17:41:05.470Z,58.50
2019-04-28T17:43:42.760Z,58.10
2019-04-28T17:46:11.689Z,57.90
2019-04-28T17:48:50.966Z,58.60
2019-04-28T17:51:19.976Z,58.90
2019-04-28T17:53:48.571Z,58.80
2019-04-28T17:56:17.288Z,58.80
2019-04-28T17:58:46.344Z,58.80
2019-04-28T18:01:16.536Z,58.70
2019-04-28T18:03:46.836Z,58.90
2019-04-28T18:06:20.023Z,59.30
2019-04-28T18:08:48.640Z,60.10
2019-04-28T18:11:17.533Z,60.50
2019-04-28T18:13:46.081Z,60.90
2019-04-28T18:16:19.291Z,60.70
2019-04-28T18:18:49.527Z,60.80
2019-04-28T18:21:18.182Z,61.00
2019-04-28T18:23:46.871Z,61.60
2019-04-28T18:26:15.588Z,61.60
2019-04-28T18:28:44.552Z,61.80
2019-04-28T18:31:14.910Z,62.10
2019-04-28T18:34:02.640Z,62.80
2019-04-28T18:36:32.962Z,63.30
2019-04-28T18:39:19.814Z,64.20
2019-04-28T18:42:06.443Z,64.50
2019-04-28T18:44:36.958Z,65.30
2019-04-28T18:47:05.645Z,66.10
2019-04-28T18:49:34.387Z,66.70
2019-04-28T18:52:03.250Z,66.80
2019-04-28T18:54:31.961Z,67.10
2019-04-28T18:57:00.549Z,67.20
2019-04-28T18:59:29.193Z,67.70
2019-04-28T19:02:05.434Z,68.00
2019-04-28T19:04:34.092Z,68.10
2019-04-28T19:07:05.135Z,68.20
2019-04-28T19:09:35.767Z,68.30
2019-04-28T19:12:12.218Z,68.20
2019-04-28T19:14:51.569Z,68.70
2019-04-28T19:17:30.876Z,68.80
2019-04-28T19:19:59.832Z,69.20
2019-04-28T19:22:28.504Z,69.50
2019-04-28T19:24:57.122Z,70.10
2019-04-28T19:27:25.736Z,71.50
2019-04-28T19:29:54.316Z,71.30
2019-04-28T19:32:22.980Z,72.10
2019-04-28T19:34:51.541Z,72.10
2019-04-28T19:37:20.210Z,72.30
2019-04-28T19:39:48.777Z,72.30
2019-04-28T19:42:17.478Z,72.50
2019-04-28T19:44:46.082Z,72.80
2019-04-28T19:47:14.822Z,72.90
2019-04-28T19:49:43.553Z,72.80
2019-04-28T19:52:12.115Z,73.30
2019-04-28T19:54:42.382Z,72.90
2019-04-28T19:57:15.602Z,73.00
2019-04-28T20:00:02.027Z,73.00
2019-04-28T20:02:32.329Z,73.20
2019-04-28T20:05:01.070Z,74.10
2019-04-28T20:07:29.622Z,74.40
2019-04-28T20:09:58.412Z,74.20
2019-04-28T20:12:27.000Z,74.10
2019-04-28T20:14:55.559Z,74.30
2019-04-28T20:17:24.267Z,74.10
2019-04-28T20:19:52.987Z,74.10
2019-04-28T20:22:21.658Z,74.40
2019-04-28T20:24:50.346Z,74.50
2019-04-28T20:27:19.063Z,75.10
2019-04-28T20:29:47.810Z,75.80
2019-04-28T20:32:16.502Z,76.30
2019-04-28T20:34:45.342Z,76.60
2019-04-28T20:37:15.610Z,76.50
2019-04-28T20:39:45.943Z,77.00
2019-04-28T20:42:32.438Z,77.20
2019-04-28T20:45:02.162Z,77.90
2019-04-28T20:47:30.731Z,77.20
2019-04-28T20:49:59.668Z,77.40
2019-04-28T20:52:28.161Z,77.00
2019-04-28T20:54:56.758Z,76.90
2019-04-28T20:57:25.488Z,77.10
2019-04-28T20:59:54.174Z,77.60
2019-04-28T21:02:22.835Z,77.50
2019-04-28T21:04:51.450Z,78.00
2019-04-28T21:07:20.465Z,77.90
2019-04-28T21:09:49.152Z,77.60
2019-04-28T21:12:17.704Z,77.60
2019-04-28T21:14:46.525Z,77.60
2019-04-28T21:17:15.262Z,77.60
2019-04-28T21:19:43.866Z,77.50
2019-04-28T21:22:12.583Z,77.60
2019-04-28T21:24:42.730Z,77.40
2019-04-28T21:27:11.522Z,77.10
2019-04-28T21:29:40.185Z,76.80
2019-04-28T21:32:08.895Z,77.10
2019-04-28T21:34:37.516Z,77.50
2019-04-28T21:37:06.240Z,77.20
2019-04-28T21:39:34.954Z,76.50
2019-04-28T21:42:05.222Z,76.10
2019-04-28T21:44:50.504Z,76.10
2019-04-28T21:47:20.916Z,76.40
2019-04-28T21:49:49.601Z,76.10
2019-04-28T21:52:18.272Z,76.40
2019-04-28T21:54:46.875Z,76.30
2019-04-28T21:57:15.666Z,76.60
2019-04-28T21:59:44.350Z,77.30
2019-04-28T22:02:13.085Z,77.80
2019-04-28T22:04:41.787Z,77.80
2019-04-28T22:07:10.446Z,78.00
2019-04-28T22:09:39.303Z,78.30
2019-04-28T22:12:07.947Z,78.50
2019-04-28T22:14:36.486Z,78.70
2019-04-28T22:17:05.319Z,78.30
2019-04-28T22:19:33.940Z,78.20
2019-04-28T22:22:02.563Z,78.10
2019-04-28T22:24:35.856Z,77.90
2019-04-28T22:27:04.684Z,78.10
2019-04-28T22:29:33.354Z,78.10
2019-04-28T22:32:02.185Z,78.10
2019-04-28T22:34:30.858Z,78.20
2019-04-28T22:37:08.469Z,78.40
2019-04-28T22:39:37.115Z,79.30
2019-04-28T22:42:05.851Z,79.90
2019-04-28T22:44:34.517Z,80.20
2019-04-28T22:47:22.458Z,80.50
2019-04-28T22:49:51.007Z,80.40
2019-04-28T22:52:19.610Z,80.30
2019-04-28T22:54:49.972Z,80.80
2019-04-28T22:57:20.296Z,80.90
2019-04-28T22:59:53.538Z,81.20
2019-04-28T23:02:23.840Z,80.80
2019-04-28T23:05:00.015Z,80.50
2019-04-28T23:07:28.758Z,80.90
2019-04-28T23:09:57.409Z,81.10
2019-04-28T23:12:27.188Z,81.90
2019-04-28T23:14:55.882Z,81.60
2019-04-28T23:17:24.631Z,81.60
2019-04-28T23:19:53.305Z,81.80
2019-04-28T23:22:23.662Z,81.80
2019-04-28T23:24:52.270Z,81.60
2019-04-28T23:27:20.812Z,81.30
2019-04-28T23:29:49.546Z,81.30
2019-04-28T23:32:19.622Z,81.20
2019-04-28T23:34:48.378Z,81.30
2019-04-28T23:37:36.245Z,82.20
2019-04-28T23:40:06.758Z,82.80
2019-04-28T23:42:37.067Z,83.10
2019-04-28T23:45:07.970Z,83.00
2019-04-28T23:47:36.594Z,83.20
2019-04-28T23:50:07.826Z,83.40
2019-04-28T23:52:43.659Z,83.20
2019-04-28T23:55:12.549Z,83.10
2019-04-28T23:57:41.417Z,83.70
